Neil Armstrong — WARL — position and weather

sailwx.info

Track history (hours):
 
Tides and Currents Weather Stations Pressure Air Temp Water Temp Dewpoint Dewpoint Depression Visibility Wind Speed Wind Dir Waves Ship Positions

Oceanographic research ship Neil Armstrong (United States)

Owner: Woods Hole Oceanographic Institution, Woods Hole, MA. More information available from US FCC via Universal Licensing System and Coast Guard Vessel Documentation Center.

Last reported at 2018-Jun-19 00:00 UTC. Time now 2018-Jun-19 01:27 UTC.
Position N 59°54' W 040°36'.

Length 72 m; draft 4.4 m.

Type: Ship. MMSI: 338767000.

Wind from 260 at 16 knots

Barometer 1004.9 mb
Air temperature 3.5 ° C
Dewpoint 1.8 ° C
Water temperature 6.5 ° C

Date/timePositionNaut miles runAvg speedWind from/ knotsBaromVisibWave heightAir tempDewpointWater temp
2018-Jun-19 00:00N 59°54' W 040°36'9 9.0 260 / 161004.9 3.5 1.8 6.5
2018-Jun-18 23:00N 59°54' W 040°54'9 9.0 250 / 221004.5 3.1 1.4 6.6
2018-Jun-18 22:00N 59°54' W 041°12'3 3.0 250 / 221004.1 3.0 1.3 6.6
2018-Jun-18 21:00N 59°54' W 041°18'0 0.0 270 / 181003.9 3.0 0.9 6.7
2018-Jun-18 20:00N 59°54' W 041°18'9 9.0 260 / 201004.1 3.1 1.0 6.7
2018-Jun-18 19:00N 59°54' W 041°00'3 3.0 240 / 161004.3 3.7 1.4 6.6
2018-Jun-18 18:00N 59°54' W 040°54'0 0.0 250 / 181004.6 3.7 1.3 6.5
2018-Jun-18 17:00N 59°54' W 040°54'0 0.0 250 / 171004.3 3.8 1.3 6.7
2018-Jun-18 16:00N 59°54' W 040°54'9 4.3 250 / 181004.4 3.7 1.4 6.7
2018-Jun-18 14:00N 59°48' W 040°42'6 6.0 240 / 161004.5 3.5 1.2 6.6
2018-Jun-18 13:00N 59°54' W 040°42'0 0.0 240 / 161004.1 3.2 1.4 6.6
2018-Jun-18 12:00N 59°54' W 040°42'0 0.0 250 / 161004.0 3.2 1.3 6.6
2018-Jun-18 11:00N 59°54' W 040°42'6 6.0 260 / 141004.1 3.1 1.3 6.6
2018-Jun-18 10:00N 59°48' W 040°42'0 0.0 250 / 81004.2 3.3 1.5 6.5
2018-Jun-18 09:00N 59°48' W 040°42'3 3.0 250 / 91004.1 3.0 1.3 6.5
2018-Jun-18 08:00N 59°48' W 040°48'7 6.7 250 / 111004.2 3.5 1.2 6.5
2018-Jun-18 07:00N 59°54' W 040°42'0 0.0 220 / 91004.1 3.4 0.4 6.5
2018-Jun-18 06:00N 59°54' W 040°42'0 0.0 250 / 111003.9 3.4 0.7 6.5
2018-Jun-18 05:00N 59°54' W 040°42'0 0.0 230 / 61003.9 3.3 0.5 6.6
2018-Jun-18 04:00N 59°54' W 040°42'0 0.0 270 / 51004.1 3.0 0.1 6.6
2018-Jun-18 03:00N 59°54' W 040°42'0 0.0 240 / 81004.1 3.2 0.3 6.6
2018-Jun-18 02:00N 59°54' W 040°42'0 0.0 240 / 81004.2 3.4 0.4 6.6
2018-Jun-18 01:00N 59°54' W 040°42'0 0.0 230 / 61004.4 3.3-0.0 6.5
2018-Jun-18 00:00N 59°54' W 040°42'0 0.0 200 / 51004.6 3.7 0.5 6.5
2018-Jun-17 23:00N 59°54' W 040°42'0 0.0 220 / 41004.7 3.7 0.6 6.6
2018-Jun-17 22:00N 59°54' W 040°42'0 0.0 190 / 91004.9 3.7 0.2 6.6
2018-Jun-17 21:00N 59°54' W 040°42'6 6.0 200 / 81005.2 4.0 0.4 6.7
2018-Jun-17 20:00N 59°48' W 040°42'3 3.0 230 / 131005.7 4.2 1.1 6.4
2018-Jun-17 19:00N 59°48' W 040°36'0 0.0 250 / 101006.0 4.6 1.3 6.4
2018-Jun-17 18:00N 59°48' W 040°36'3 3.0 260 / 101006.0 4.6 1.2 6.5
2018-Jun-17 17:00N 59°48' W 040°42'1110.9 280 / 131006.3 5.0 1.2 6.5
2018-Jun-17 16:00N 59°54' W 041°00'3 3.0 280 / 111006.4 4.6 0.4 6.7
2018-Jun-17 15:00N 59°54' W 041°06'0 0.0 310 / 111006.4 4.3 0.7 6.6
2018-Jun-17 14:00N 59°54' W 041°06'0 0.0 310 / 151006.4 4.4 1.9 6.7
2018-Jun-17 13:00N 59°54' W 041°06'0 0.0 330 / 71006.5 5.2 2.5 6.5
2018-Jun-17 12:00N 59°54' W 041°06'0 0.0 350 / 101006.4 5.0 2.3 6.4
2018-Jun-17 11:00N 59°54' W 041°06'0 0.0 350 / 91006.2 5.1 2.8 6.6
2018-Jun-17 10:00N 59°54' W 041°06'0 0.0 350 / 111006.2 5.0 2.9 6.3
2018-Jun-17 09:00N 59°54' W 041°06'6 6.0 340 / 111006.2 4.9 2.4 6.4
2018-Jun-17 08:00N 59°48' W 041°06'6 6.0 340 / 171006.0 4.9 2.4 6.4
2018-Jun-17 07:00N 59°54' W 041°06'0 0.0 6.4
2018-Jun-17 06:00N 59°54' W 041°06'0 0.0 6.4
2018-Jun-17 05:00N 59°54' W 041°06'0 0.0 6.4
2018-Jun-17 04:00N 59°54' W 041°06'0 0.0 6.4
2018-Jun-17 03:00N 59°54' W 041°06'0 0.0 6.3
2018-Jun-17 02:00N 59°54' W 041°06'0 0.0 6.3
2018-Jun-17 01:00N 59°54' W 041°06'0 0.0 6.3
2018-Jun-17 00:00N 59°54' W 041°06'0 0.0 6.3
2018-Jun-16 23:00N 59°54' W 041°06'6 6.0 6.3
2018-Jun-16 22:00N 59°54' W 040°54'1110.9 6.4
2018-Jun-16 21:00N 59°48' W 040°36'1212.1 6.4
2018-Jun-16 20:00N 59°48' W 040°12'9 9.1 6.6
2018-Jun-16 19:00N 59°48' W 039°54'1313.5 6.1
2018-Jun-16 18:00N 59°42' W 039°30'6 6.1 5.8
2018-Jun-16 17:00N 59°42' W 039°18'0 0.0 6.2
2018-Jun-16 16:00N 59°42' W 039°18'0 0.0 6.2
2018-Jun-16 15:00N 59°42' W 039°18'0 0.0 6.1
2018-Jun-16 14:00N 59°42' W 039°18'7 6.7 050 / 151005.6 5.9 2.4 6.0
2018-Jun-16 13:00N 59°48' W 039°24'1212.4 050 / 211006.2 6.0 3.2 5.9
2018-Jun-16 12:00N 60°00' W 039°30'0 0.0 060 / 161006.1 6.1 2.8 6.1
2018-Jun-16 11:00N 60°00' W 039°30'3 3.0 060 / 191005.8 5.9 2.5 6.2
2018-Jun-16 10:00N 60°00' W 039°36'0 0.0 060 / 151005.6 6.1 1.8 6.5
2018-Jun-16 09:00N 60°00' W 039°36'0 0.0 070 / 191005.5 6.1-0.0 6.4
2018-Jun-16 08:00N 60°00' W 039°36'3 3.0 080 / 171005.6 6.1 2.1 6.2
2018-Jun-16 07:00N 60°00' W 039°30'0 0.0 070 / 151005.5 6.0 2.9 6.0
2018-Jun-16 06:00N 60°00' W 039°30'6 6.0 070 / 141005.4 5.6 4.1 6.0
2018-Jun-16 05:00N 59°54' W 039°30'0 0.0 080 / 141005.5 5.3 4.1 6.2
2018-Jun-16 04:00N 59°54' W 039°30'0 0.0 070 / 141006.0 5.6 4.4 6.2
2018-Jun-16 03:00N 59°54' W 039°30'0 0.0 080 / 121005.7 6.0 4.6 6.2
2018-Jun-16 02:00N 59°54' W 039°30'0 0.0 080 / 131006.1 6.1 4.4 6.2
2018-Jun-16 01:00N 59°54' W 039°30'0 0.0 070 / 151005.7 5.9 3.9 6.2
2018-Jun-16 00:00N 59°54' W 039°30'0 0.0 080 / 181005.8 6.2 3.7 6.2
2018-Jun-15 23:00N 59°54' W 039°30'0 0.0 090 / 171005.6 5.7 4.4 6.2
2018-Jun-15 22:00N 59°54' W 039°30'0 0.0 090 / 151005.6 5.8 4.8 6.4
2018-Jun-15 21:00N 59°54' W 039°30'3 3.0 080 / 181005.0 5.9 4.9 6.5
2018-Jun-15 20:00N 59°54' W 039°24'7 6.7 070 / 81005.0 6.2 5.0 6.4
2018-Jun-15 19:00N 59°48' W 039°30'3 3.0 070 / 51004.7 6.3 5.0 6.4
2018-Jun-15 18:00N 59°48' W 039°36'6 6.0 100 / 31004.7 6.3 5.0 6.0
2018-Jun-15 17:00N 59°42' W 039°36'0 0.0 090 / 31004.6 6.0 4.8 6.2
2018-Jun-15 16:00N 59°42' W 039°36'7 6.7 090 / 61004.4 6.3 4.6 6.4
2018-Jun-15 15:00N 59°48' W 039°42'6 6.0 090 / 61004.5 6.5 4.7 6.3
2018-Jun-15 14:00N 59°48' W 039°54'3 3.0 050 / 71004.3 6.5 4.6 6.4
2018-Jun-15 13:00N 59°48' W 040°00'3 3.0 060 / 61004.2 6.4 4.9 6.6
2018-Jun-15 12:00N 59°48' W 039°54'0 0.0 050 / 71003.7 6.3 4.6 6.3
2018-Jun-15 11:00N 59°48' W 039°54'0 0.0 030 / 61003.4 6.1 4.3 6.2
2018-Jun-15 10:00N 59°48' W 039°54'0 0.0 020 / 21002.9 6.4 3.9 6.1
2018-Jun-15 09:00N 59°48' W 039°54'0 0.0 040 / 41002.4 6.0 3.8 6.2
2018-Jun-15 08:00N 59°48' W 039°54'0 0.0 070 / 21002.4 5.9 3.5 6.0
2018-Jun-15 07:00N 59°48' W 039°54'0 0.0 080 / 71001.9 5.9 3.9 6.1
2018-Jun-15 06:00N 59°48' W 039°54'0 0.0 060 / 101001.6 5.9 4.0 6.0
2018-Jun-15 05:00N 59°48' W 039°54'0 0.0 040 / 81001.2 6.1 4.1 6.3
2018-Jun-15 04:00N 59°48' W 039°54'0 0.0 040 / 121001.0 6.0 4.1 6.2
2018-Jun-15 03:00N 59°48' W 039°54'0 0.0 030 / 101000.9 6.0 4.1 6.3
2018-Jun-15 02:00N 59°48' W 039°54'0 0.0 030 / 131000.7 6.0 3.9 6.3
2018-Jun-15 01:00N 59°48' W 039°54'0 0.0 040 / 131000.4 6.0 3.5 6.2
2018-Jun-15 00:00N 59°48' W 039°54'0 0.0 050 / 91000.1 6.1 4.0 6.2
2018-Jun-14 23:00N 59°48' W 039°54'3 3.0 040 / 11999.8 5.9 3.5 6.2
2018-Jun-14 22:00N 59°48' W 039°48'0 0.0 030 / 11999.5 5.8 3.5 6.3
2018-Jun-14 21:00N 59°48' W 039°48'0 0.0 040 / 11999.3 5.8 3.4 6.2
2018-Jun-14 20:00N 59°48' W 039°48'0 0.0 020 / 12999.2 5.8 3.4 6.4
2018-Jun-14 19:00N 59°48' W 039°48'7 6.7 340 / 2999.5 5.0 3.4 6.5
2018-Jun-14 18:00N 59°54' W 039°42'0 0.0 350 / 3999.6 5.0 3.3 6.8
2018-Jun-14 17:00N 59°54' W 039°42'0 0.0 999.7 4.5 3.1 6.9
2018-Jun-14 16:00N 59°54' W 039°42'0 0.0 999.6 4.3 2.8 6.9
2018-Jun-14 15:00N 59°54' W 039°42'3 3.0 999.6 5.4 1.6 6.7
2018-Jun-14 14:00N 59°54' W 039°36'0 0.0 050 / 3999.5 5.2 1.0 6.6
2018-Jun-14 13:00N 59°54' W 039°36'0 0.0 070 / 4999.4 4.8 1.4 6.4
2018-Jun-14 12:00N 59°54' W 039°36'0 0.0 070 / 4999.1 4.4 1.5 6.4
2018-Jun-14 11:00N 59°54' W 039°36'0 0.0 140 / 6998.9 4.1 1.1 6.3
2018-Jun-14 10:00N 59°54' W 039°36'0 0.0 130 / 3998.8 4.2 0.7 6.3
2018-Jun-14 09:00N 59°54' W 039°36'3 1.5 220 / 6998.8 4.0 0.9 6.2
2018-Jun-14 07:00N 59°54' W 039°30'0 0.0 250 / 8998.6 3.5 1.6 6.3
2018-Jun-14 06:00N 59°54' W 039°30'0 0.0 270 / 4998.6 3.5 2.0 6.3
2018-Jun-14 05:00N 59°54' W 039°30'0 0.0 260 / 7998.9 4.2 2.0 6.3
2018-Jun-14 04:00N 59°54' W 039°30'0 0.0 250 / 11999.2 4.0 2.0 6.2
2018-Jun-14 03:00N 59°54' W 039°30'0 0.0 240 / 12999.6 4.0 2.0 6.3
2018-Jun-14 02:00N 59°54' W 039°30'0 0.0 240 / 101000.0 4.7 2.1 6.3
2018-Jun-14 01:00N 59°54' W 039°30'0 0.0 240 / 141000.1 4.7 2.6 6.3
2018-Jun-14 00:00N 59°54' W 039°30'0 0.0 270 / 131000.2 5.4 2.2 6.3
2018-Jun-13 23:00N 59°54' W 039°30'0 0.0 280 / 101000.2 5.4 3.2 6.3
2018-Jun-13 22:00N 59°54' W 039°30'1313.4 270 / 101000.1 5.5 3.3 6.5
2018-Jun-13 21:00N 59°42' W 039°18'3 3.0 280 / 101000.4 5.5 2.8 5.8
2018-Jun-13 20:00N 59°42' W 039°12'9 9.1 290 / 101000.4 5.5 1.6 6.0
2018-Jun-13 19:00N 59°42' W 038°54'0 0.0 300 / 111000.5 5.5 2.2 5.5
2018-Jun-13 18:00N 59°42' W 038°54'0 0.0 310 / 111000.8 5.5 2.8 5.8
2018-Jun-13 17:00N 59°42' W 038°54'6 6.1 310 / 101000.8 5.3 3.7 5.8
2018-Jun-13 16:00N 59°42' W 038°42'3 3.0 300 / 101001.1 5.2 3.8 5.8
2018-Jun-13 15:00N 59°42' W 038°36'0 0.0 300 / 121001.5 5.3 3.4 5.8
2018-Jun-13 14:00N 59°42' W 038°36'0 0.0 290 / 91002.0 5.4 3.2 5.8
2018-Jun-13 13:00N 59°42' W 038°36'0 0.0 300 / 51002.2 5.3 3.4 5.8
2018-Jun-13 12:00N 59°42' W 038°36'0 0.0 310 / 51002.4 5.0 3.6 5.7
2018-Jun-13 11:00N 59°42' W 038°36'3 3.0 320 / 71002.6 5.0 3.8 5.6
2018-Jun-13 10:00N 59°42' W 038°30'0 0.0 350 / 61002.9 5.0 4.0 5.7
2018-Jun-13 09:00N 59°42' W 038°30'6 6.0 260 / 71002.9 5.1 4.1 5.6
2018-Jun-13 08:00N 59°36' W 038°30'7 6.7 270 / 61003.2 5.2 4.1 5.6
2018-Jun-13 07:00N 59°42' W 038°36'0 0.0 250 / 51003.4 5.0 4.0 5.5
2018-Jun-13 06:00N 59°42' W 038°36'0 0.0 260 / 71004.0 4.9 3.9 5.5
2018-Jun-13 05:00N 59°42' W 038°36'0 0.0 250 / 71004.5 4.9 3.9 5.4
2018-Jun-13 04:00N 59°42' W 038°36'0 0.0 270 / 61005.0 5.0 4.1 5.4
2018-Jun-13 03:00N 59°42' W 038°36'3 3.0 270 / 61005.6 4.9 4.0 5.3
2018-Jun-13 02:00N 59°42' W 038°30'3 3.0 260 / 71006.5 4.9 4.0 5.5
2018-Jun-13 01:00N 59°42' W 038°36'0 0.0 240 / 81007.3 4.8 3.8 5.5
2018-Jun-13 00:00N 59°42' W 038°36'9 8.5 260 / 81007.4 5.0 4.0 5.6
2018-Jun-12 23:00N 59°48' W 038°48'9 9.1 280 / 31007.4 5.4 4.2 5.5
2018-Jun-12 22:00N 59°48' W 039°06'3 3.0 010 / 21007.7 5.7 4.2 6.1
2018-Jun-12 21:00N 59°48' W 039°12'0 0.0 300 / 51007.9 5.5 4.3 6.2
2018-Jun-12 20:00N 59°48' W 039°12'0 0.0 290 / 51008.2 5.1 3.9 6.2
2018-Jun-12 19:00N 59°48' W 039°12'0 0.0 250 / 71008.4 4.9 3.7 6.2
2018-Jun-12 18:00N 59°48' W 039°12'7 6.7 250 / 101009.1 4.9 3.7 6.2
2018-Jun-12 17:00N 59°42' W 039°18'0 0.0 270 / 81009.3 4.9 3.0 6.3
2018-Jun-12 16:00N 59°42' W 039°18'7 6.7 250 / 71010.0 5.6 3.5 6.3
2018-Jun-12 15:00N 59°48' W 039°24'9 8.5 260 / 71009.8 5.1 3.3 6.1
2018-Jun-12 14:00N 59°54' W 039°36'0 0.0 240 / 91009.9 4.7 3.6 6.2
2018-Jun-12 13:00N 59°54' W 039°36'6 6.0 240 / 91010.3 4.7 3.5 6.1
2018-Jun-12 12:00N 60°00' W 039°36'6 6.0 220 / 81010.3 4.8 3.5 6.1
2018-Jun-12 11:00N 60°00' W 039°24'0 0.0 230 / 91010.0 5.0 3.8 6.2
2018-Jun-12 10:00N 60°00' W 039°24'0 0.0 230 / 101009.8 4.8 3.8 6.2
2018-Jun-12 09:00N 60°00' W 039°24'0 0.0 220 / 91009.7 4.9 3.9 6.1
2018-Jun-12 08:00N 60°00' W 039°24'0 0.0 250 / 41009.9 5.1 4.1 6.1
2018-Jun-12 07:00N 60°00' W 039°24'0 0.0 250 / 41009.6 5.1 4.1 6.1
2018-Jun-12 06:00N 60°00' W 039°24'0 0.0 280 / 31009.5 5.2 3.9 6.1
2018-Jun-12 05:00N 60°00' W 039°24'0 0.0 250 / 21009.3 5.1 3.9 6.1
2018-Jun-12 04:00N 60°00' W 039°24'1212.0 200 / 31009.3 4.9 3.8 6.1
2018-Jun-12 03:00N 59°48' W 039°24'6 6.0 140 / 31009.6 5.2 3.9 6.0
2018-Jun-12 02:00N 59°42' W 039°24'0 0.0 130 / 61009.3 5.1 4.0 5.9
2018-Jun-12 01:00N 59°42' W 039°24'3 3.0 140 / 41009.3 4.9 3.9 5.8
2018-Jun-12 00:00N 59°42' W 039°18'0 0.0 140 / 31009.2 4.9 4.0 5.8
2018-Jun-11 23:00N 59°42' W 039°18'3 3.0 160 / 51008.7 5.0 4.1 5.9
2018-Jun-11 22:00N 59°42' W 039°24'0 0.0 140 / 71008.4 5.3 4.4 5.9
2018-Jun-11 21:00N 59°42' W 039°24'0 0.0 070 / 161008.1 5.4 4.5 5.9
2018-Jun-11 20:00N 59°42' W 039°24'0 0.0 060 / 191007.7 5.4 4.5 6.0
2018-Jun-11 19:00N 59°42' W 039°24'3 3.0 070 / 241007.6 5.4 4.4 6.0
2018-Jun-11 18:00N 59°42' W 039°18'3 3.0 060 / 221007.6 5.3 4.3 6.0
2018-Jun-11 17:00N 59°42' W 039°24'0 0.0 060 / 241007.6 5.3 4.3 6.0
2018-Jun-11 16:00N 59°42' W 039°24'3 3.0 060 / 231007.8 5.3 4.2 6.0
2018-Jun-11 15:00N 59°42' W 039°18'0 0.0 060 / 241008.0 5.1 4.0 6.0
2018-Jun-11 14:00N 59°42' W 039°18'0 0.0 060 / 231008.6 5.2 3.8 6.0
2018-Jun-11 13:00N 59°42' W 039°18'3 3.0 070 / 231009.1 5.0 3.8 6.0
2018-Jun-11 12:00N 59°42' W 039°24'0 0.0 070 / 171009.3 4.8 3.6 6.0
2018-Jun-11 11:00N 59°42' W 039°24'0 0.0 080 / 171009.8 4.6 3.4 6.0
2018-Jun-11 10:00N 59°42' W 039°24'0 0.0 080 / 171010.0 4.6 3.4 6.1
2018-Jun-11 09:00N 59°42' W 039°24'0 0.0 090 / 181010.3 4.6 3.2 6.1
2018-Jun-11 08:00N 59°42' W 039°24'3 3.0 090 / 161010.6 4.4 2.9 6.1
2018-Jun-11 07:00N 59°42' W 039°18'0 0.0 090 / 161010.7 4.4 2.9 6.1
2018-Jun-11 06:00N 59°42' W 039°18'0 0.0 090 / 121011.1 4.6 2.5 6.1
2018-Jun-11 05:00N 59°42' W 039°18'0 0.0 110 / 111011.6 4.8 2.6 6.1
2018-Jun-11 04:00N 59°42' W 039°18'0 0.0 110 / 121012.3 5.1 2.1 6.2
2018-Jun-11 03:00N 59°42' W 039°18'0 0.0 090 / 91013.2 5.2 2.4 6.2
2018-Jun-11 02:00N 59°42' W 039°18'0 0.0 080 / 81013.5 5.1 2.2 6.3
2018-Jun-11 01:00N 59°42' W 039°18'0 0.0 060 / 71014.2 5.2 2.1 6.3
2018-Jun-11 00:00N 59°42' W 039°18'0 0.0 050 / 71014.7 5.2 1.9 6.2
2018-Jun-10 23:00N 59°42' W 039°18'0 0.0 060 / 41015.1 5.3 2.0 6.3
2018-Jun-10 22:00N 59°42' W 039°18'0 0.0 070 / 21015.3 5.4 2.1 6.3
2018-Jun-10 21:00N 59°42' W 039°18'3 3.0 1015.4 5.6 1.8 6.3
2018-Jun-10 20:00N 59°42' W 039°24'1110.9 010 / 71015.3 5.6 2.9 6.3
2018-Jun-10 19:00N 59°48' W 039°42'6 6.0 340 / 51015.4 5.5 2.5 5.5
2018-Jun-10 18:00N 59°48' W 039°54'3 3.0 340 / 41015.7 5.4 2.8 5.8
2018-Jun-10 17:00N 59°48' W 039°48'3 3.0 260 / 51015.8 5.5 2.7 5.3
2018-Jun-10 16:00N 59°48' W 039°54'0 0.0 260 / 41016.0 5.7 2.5 5.3
2018-Jun-10 15:00N 59°48' W 039°54'3 3.0 250 / 41016.2 5.5 2.4 5.3
2018-Jun-10 14:00N 59°48' W 039°48'0 0.0 240 / 31016.3 5.4 2.3 5.1
2018-Jun-10 13:00N 59°48' W 039°48'6 6.0 280 / 41016.0 5.5 2.3 5.2
2018-Jun-10 12:00N 59°42' W 039°48'0 0.0 310 / 41015.6 5.3 1.8 4.9
2018-Jun-10 11:00N 59°42' W 039°48'0 0.0 350 / 51015.5 5.2 2.0 4.9
2018-Jun-10 10:00N 59°42' W 039°48'0 0.0 300 / 61015.1 4.8 2.9 4.8
2018-Jun-10 09:00N 59°42' W 039°48'0 0.0 260 / 81015.0 4.6 2.8 4.8
2018-Jun-10 08:00N 59°42' W 039°48'6 6.0 240 / 81014.7 4.3 2.5 4.8
2018-Jun-10 07:00N 59°48' W 039°48'0 0.0 260 / 41014.2 4.7 2.6 4.8
2018-Jun-10 06:00N 59°48' W 039°48'0 0.0 280 / 31013.8 4.3 2.6 4.8
2018-Jun-10 05:00N 59°48' W 039°48'0 0.0 270 / 31013.3 3.7 2.1 4.8
2018-Jun-10 04:00N 59°48' W 039°48'0 0.0 220 / 71013.0 3.4 1.8 4.9
2018-Jun-10 03:00N 59°48' W 039°48'0 0.0 220 / 91013.3 3.5 1.9 4.9
2018-Jun-10 02:00N 59°48' W 039°48'7 6.7 290 / 81012.9 3.5 1.8 4.9
2018-Jun-10 01:00N 59°54' W 039°42'7 6.7 280 / 91012.7 3.8 2.1 5.9
2018-Jun-10 00:00N 60°00' W 039°36'3 3.0 270 / 111012.0 4.1 2.4 5.8
2018-Jun-09 23:00N 60°00' W 039°30'8 8.5 260 / 151011.5 3.8 1.8 5.9
2018-Jun-09 22:00N 59°54' W 039°18'0 0.0 270 / 161010.8 3.7 1.8 5.9
2018-Jun-09 21:00N 59°54' W 039°18'0 0.0 280 / 211010.3 3.9 1.7 6.1
2018-Jun-09 20:00N 59°54' W 039°18'0 0.0 260 / 251009.9 3.9 2.0 6.0
2018-Jun-09 19:00N 59°54' W 039°18'3 3.0 280 / 181009.7 4.0 2.0 6.0
2018-Jun-09 18:00N 59°54' W 039°24'7 6.7 260 / 181008.9 3.9 2.0 5.9
2018-Jun-09 17:00N 60°00' W 039°30'6 6.0 270 / 231008.2 3.8 2.1 5.9
2018-Jun-09 16:00N 59°54' W 039°30'6 6.0 270 / 231007.5 3.7 1.9 6.0
2018-Jun-09 15:00N 60°00' W 039°30'0 0.0 270 / 231006.8 3.9 2.2 6.0
2018-Jun-09 14:00N 60°00' W 039°30'0 0.0 280 / 181006.2 4.2 2.6 5.9
2018-Jun-09 13:00N 60°00' W 039°30'0 0.0 290 / 161005.8 4.2 2.9 5.9
2018-Jun-09 12:00N 60°00' W 039°30'7 6.7 280 / 151005.0 4.3 3.0 6.1
2018-Jun-09 11:00N 59°54' W 039°24'0 0.0 270 / 141004.8 4.5 3.1 6.0
2018-Jun-09 10:00N 59°54' W 039°24'0 0.0 260 / 131004.4 4.4 3.3 5.9
2018-Jun-09 09:00N 59°54' W 039°24'0 0.0 280 / 131004.2 4.5 3.3 6.0
2018-Jun-09 08:00N 59°54' W 039°24'7 6.7 300 / 171003.7 4.5 3.3 5.9
2018-Jun-09 07:00N 60°00' W 039°30'0 0.0 290 / 171003.1 4.8 3.8 5.9
2018-Jun-09 06:00N 60°00' W 039°30'0 0.0 300 / 181002.7 5.4 4.5 5.9
2018-Jun-09 05:00N 60°00' W 039°30'0 0.0 310 / 151002.4 5.5 4.6 5.9
2018-Jun-09 04:00N 60°00' W 039°30'0 0.0 320 / 171002.2 5.5 4.6 5.9
2018-Jun-09 03:00N 60°00' W 039°30'0 0.0 330 / 151002.0 5.6 4.7 5.9
2018-Jun-09 02:00N 60°00' W 039°30'   330 / 131002.2 5.6 4.7 5.9
Track history (hours):
 
Tides and Currents Weather Stations Pressure Air Temp Water Temp Dewpoint Dewpoint Depression Visibility Wind Speed Wind Dir Waves Ship Positions

Oceanographic research ship Neil Armstrong (United States)

Owner: Woods Hole Oceanographic Institution, Woods Hole, MA. More information available from US FCC via Universal Licensing System and Coast Guard Vessel Documentation Center.

Last reported at 2018-Jun-19 00:00 UTC. Time now 2018-Jun-19 01:27 UTC.
Position N 59°54' W 040°36'.

Length 72 m; draft 4.4 m.

Type: Ship. MMSI: 338767000.

Wind from 260 at 16 knots

Barometer 1004.9 mb
Air temperature 3.5 ° C
Dewpoint 1.8 ° C
Water temperature 6.5 ° C

Date/timePositionNaut miles runAvg speedWind from/ knotsBaromVisibWave heightAir tempDewpointWater temp
2018-Jun-19 00:00N 59°54' W 040°36'9 9.0 260 / 161004.9 3.5 1.8 6.5
2018-Jun-18 23:00N 59°54' W 040°54'9 9.0 250 / 221004.5 3.1 1.4 6.6
2018-Jun-18 22:00N 59°54' W 041°12'3 3.0 250 / 221004.1 3.0 1.3 6.6
2018-Jun-18 21:00N 59°54' W 041°18'0 0.0 270 / 181003.9 3.0 0.9 6.7
2018-Jun-18 20:00N 59°54' W 041°18'9 9.0 260 / 201004.1 3.1 1.0 6.7
2018-Jun-18 19:00N 59°54' W 041°00'3 3.0 240 / 161004.3 3.7 1.4 6.6
2018-Jun-18 18:00N 59°54' W 040°54'0 0.0 250 / 181004.6 3.7 1.3 6.5
2018-Jun-18 17:00N 59°54' W 040°54'0 0.0 250 / 171004.3 3.8 1.3 6.7
2018-Jun-18 16:00N 59°54' W 040°54'9 4.3 250 / 181004.4 3.7 1.4 6.7
2018-Jun-18 14:00N 59°48' W 040°42'6 6.0 240 / 161004.5 3.5 1.2 6.6
2018-Jun-18 13:00N 59°54' W 040°42'0 0.0 240 / 161004.1 3.2 1.4 6.6
2018-Jun-18 12:00N 59°54' W 040°42'0 0.0 250 / 161004.0 3.2 1.3 6.6
2018-Jun-18 11:00N 59°54' W 040°42'6 6.0 260 / 141004.1 3.1 1.3 6.6
2018-Jun-18 10:00N 59°48' W 040°42'0 0.0 250 / 81004.2 3.3 1.5 6.5
2018-Jun-18 09:00N 59°48' W 040°42'3 3.0 250 / 91004.1 3.0 1.3 6.5
2018-Jun-18 08:00N 59°48' W 040°48'7 6.7 250 / 111004.2 3.5 1.2 6.5
2018-Jun-18 07:00N 59°54' W 040°42'0 0.0 220 / 91004.1 3.4 0.4 6.5
2018-Jun-18 06:00N 59°54' W 040°42'0 0.0 250 / 111003.9 3.4 0.7 6.5
2018-Jun-18 05:00N 59°54' W 040°42'0 0.0 230 / 61003.9 3.3 0.5 6.6
2018-Jun-18 04:00N 59°54' W 040°42'0 0.0 270 / 51004.1 3.0 0.1 6.6
2018-Jun-18 03:00N 59°54' W 040°42'0 0.0 240 / 81004.1 3.2 0.3 6.6
2018-Jun-18 02:00N 59°54' W 040°42'0 0.0 240 / 81004.2 3.4 0.4 6.6
2018-Jun-18 01:00N 59°54' W 040°42'0 0.0 230 / 61004.4 3.3-0.0 6.5
2018-Jun-18 00:00N 59°54' W 040°42'0 0.0 200 / 51004.6 3.7 0.5 6.5
2018-Jun-17 23:00N 59°54' W 040°42'0 0.0 220 / 41004.7 3.7 0.6 6.6
2018-Jun-17 22:00N 59°54' W 040°42'0 0.0 190 / 91004.9 3.7 0.2 6.6
2018-Jun-17 21:00N 59°54' W 040°42'6 6.0 200 / 81005.2 4.0 0.4 6.7
2018-Jun-17 20:00N 59°48' W 040°42'3 3.0 230 / 131005.7 4.2 1.1 6.4
2018-Jun-17 19:00N 59°48' W 040°36'0 0.0 250 / 101006.0 4.6 1.3 6.4
2018-Jun-17 18:00N 59°48' W 040°36'3 3.0 260 / 101006.0 4.6 1.2 6.5
2018-Jun-17 17:00N 59°48' W 040°42'1110.9 280 / 131006.3 5.0 1.2 6.5
2018-Jun-17 16:00N 59°54' W 041°00'3 3.0 280 / 111006.4 4.6 0.4 6.7
2018-Jun-17 15:00N 59°54' W 041°06'0 0.0 310 / 111006.4 4.3 0.7 6.6
2018-Jun-17 14:00N 59°54' W 041°06'0 0.0 310 / 151006.4 4.4 1.9 6.7
2018-Jun-17 13:00N 59°54' W 041°06'0 0.0 330 / 71006.5 5.2 2.5 6.5
2018-Jun-17 12:00N 59°54' W 041°06'0 0.0 350 / 101006.4 5.0 2.3 6.4
2018-Jun-17 11:00N 59°54' W 041°06'0 0.0 350 / 91006.2 5.1 2.8 6.6
2018-Jun-17 10:00N 59°54' W 041°06'0 0.0 350 / 111006.2 5.0 2.9 6.3
2018-Jun-17 09:00N 59°54' W 041°06'6 6.0 340 / 111006.2 4.9 2.4 6.4
2018-Jun-17 08:00N 59°48' W 041°06'6 6.0 340 / 171006.0 4.9 2.4 6.4
2018-Jun-17 07:00N 59°54' W 041°06'0 0.0 6.4
2018-Jun-17 06:00N 59°54' W 041°06'0 0.0 6.4
2018-Jun-17 05:00N 59°54' W 041°06'0 0.0 6.4
2018-Jun-17 04:00N 59°54' W 041°06'0 0.0 6.4
2018-Jun-17 03:00N 59°54' W 041°06'0 0.0 6.3
2018-Jun-17 02:00N 59°54' W 041°06'0 0.0 6.3
2018-Jun-17 01:00N 59°54' W 041°06'0 0.0 6.3
2018-Jun-17 00:00N 59°54' W 041°06'0 0.0 6.3
2018-Jun-16 23:00N 59°54' W 041°06'6 6.0 6.3
2018-Jun-16 22:00N 59°54' W 040°54'1110.9 6.4
2018-Jun-16 21:00N 59°48' W 040°36'1212.1 6.4
2018-Jun-16 20:00N 59°48' W 040°12'9 9.1 6.6
2018-Jun-16 19:00N 59°48' W 039°54'1313.5 6.1
2018-Jun-16 18:00N 59°42' W 039°30'6 6.1 5.8
2018-Jun-16 17:00N 59°42' W 039°18'0 0.0 6.2
2018-Jun-16 16:00N 59°42' W 039°18'0 0.0 6.2
2018-Jun-16 15:00N 59°42' W 039°18'0 0.0 6.1
2018-Jun-16 14:00N 59°42' W 039°18'7 6.7 050 / 151005.6 5.9 2.4 6.0
2018-Jun-16 13:00N 59°48' W 039°24'1212.4 050 / 211006.2 6.0 3.2 5.9
2018-Jun-16 12:00N 60°00' W 039°30'0 0.0 060 / 161006.1 6.1 2.8 6.1
2018-Jun-16 11:00N 60°00' W 039°30'3 3.0 060 / 191005.8 5.9 2.5 6.2
2018-Jun-16 10:00N 60°00' W 039°36'0 0.0 060 / 151005.6 6.1 1.8 6.5
2018-Jun-16 09:00N 60°00' W 039°36'0 0.0 070 / 191005.5 6.1-0.0 6.4
2018-Jun-16 08:00N 60°00' W 039°36'3 3.0 080 / 171005.6 6.1 2.1 6.2
2018-Jun-16 07:00N 60°00' W 039°30'0 0.0 070 / 151005.5 6.0 2.9 6.0
2018-Jun-16 06:00N 60°00' W 039°30'6 6.0 070 / 141005.4 5.6 4.1 6.0
2018-Jun-16 05:00N 59°54' W 039°30'0 0.0 080 / 141005.5 5.3 4.1 6.2
2018-Jun-16 04:00N 59°54' W 039°30'0 0.0 070 / 141006.0 5.6 4.4 6.2
2018-Jun-16 03:00N 59°54' W 039°30'0 0.0 080 / 121005.7 6.0 4.6 6.2
2018-Jun-16 02:00N 59°54' W 039°30'0 0.0 080 / 131006.1 6.1 4.4 6.2
2018-Jun-16 01:00N 59°54' W 039°30'0 0.0 070 / 151005.7 5.9 3.9 6.2
2018-Jun-16 00:00N 59°54' W 039°30'0 0.0 080 / 181005.8 6.2 3.7 6.2
2018-Jun-15 23:00N 59°54' W 039°30'0 0.0 090 / 171005.6 5.7 4.4 6.2
2018-Jun-15 22:00N 59°54' W 039°30'0 0.0 090 / 151005.6 5.8 4.8 6.4
2018-Jun-15 21:00N 59°54' W 039°30'3 3.0 080 / 181005.0 5.9 4.9 6.5
2018-Jun-15 20:00N 59°54' W 039°24'7 6.7 070 / 81005.0 6.2 5.0 6.4
2018-Jun-15 19:00N 59°48' W 039°30'3 3.0 070 / 51004.7 6.3 5.0 6.4
2018-Jun-15 18:00N 59°48' W 039°36'6 6.0 100 / 31004.7 6.3 5.0 6.0
2018-Jun-15 17:00N 59°42' W 039°36'0 0.0 090 / 31004.6 6.0 4.8 6.2
2018-Jun-15 16:00N 59°42' W 039°36'7 6.7 090 / 61004.4 6.3 4.6 6.4
2018-Jun-15 15:00N 59°48' W 039°42'6 6.0 090 / 61004.5 6.5 4.7 6.3
2018-Jun-15 14:00N 59°48' W 039°54'3 3.0 050 / 71004.3 6.5 4.6 6.4
2018-Jun-15 13:00N 59°48' W 040°00'3 3.0 060 / 61004.2 6.4 4.9 6.6
2018-Jun-15 12:00N 59°48' W 039°54'0 0.0 050 / 71003.7 6.3 4.6 6.3
2018-Jun-15 11:00N 59°48' W 039°54'0 0.0 030 / 61003.4 6.1 4.3 6.2
2018-Jun-15 10:00N 59°48' W 039°54'0 0.0 020 / 21002.9 6.4 3.9 6.1
2018-Jun-15 09:00N 59°48' W 039°54'0 0.0 040 / 41002.4 6.0 3.8 6.2
2018-Jun-15 08:00N 59°48' W 039°54'0 0.0 070 / 21002.4 5.9 3.5 6.0
2018-Jun-15 07:00N 59°48' W 039°54'0 0.0 080 / 71001.9 5.9 3.9 6.1
2018-Jun-15 06:00N 59°48' W 039°54'0 0.0 060 / 101001.6 5.9 4.0 6.0
2018-Jun-15 05:00N 59°48' W 039°54'0 0.0 040 / 81001.2 6.1 4.1 6.3
2018-Jun-15 04:00N 59°48' W 039°54'0 0.0 040 / 121001.0 6.0 4.1 6.2
2018-Jun-15 03:00N 59°48' W 039°54'0 0.0 030 / 101000.9 6.0 4.1 6.3
2018-Jun-15 02:00N 59°48' W 039°54'0 0.0 030 / 131000.7 6.0 3.9 6.3
2018-Jun-15 01:00N 59°48' W 039°54'0 0.0 040 / 131000.4 6.0 3.5 6.2
2018-Jun-15 00:00N 59°48' W 039°54'0 0.0 050 / 91000.1 6.1 4.0 6.2
2018-Jun-14 23:00N 59°48' W 039°54'3 3.0 040 / 11999.8 5.9 3.5 6.2
2018-Jun-14 22:00N 59°48' W 039°48'0 0.0 030 / 11999.5 5.8 3.5 6.3
2018-Jun-14 21:00N 59°48' W 039°48'0 0.0 040 / 11999.3 5.8 3.4 6.2
2018-Jun-14 20:00N 59°48' W 039°48'0 0.0 020 / 12999.2 5.8 3.4 6.4
2018-Jun-14 19:00N 59°48' W 039°48'7 6.7 340 / 2999.5 5.0 3.4 6.5
2018-Jun-14 18:00N 59°54' W 039°42'0 0.0 350 / 3999.6 5.0 3.3 6.8
2018-Jun-14 17:00N 59°54' W 039°42'0 0.0 999.7 4.5 3.1 6.9
2018-Jun-14 16:00N 59°54' W 039°42'0 0.0 999.6 4.3 2.8 6.9
2018-Jun-14 15:00N 59°54' W 039°42'3 3.0 999.6 5.4 1.6 6.7
2018-Jun-14 14:00N 59°54' W 039°36'0 0.0 050 / 3999.5 5.2 1.0 6.6
2018-Jun-14 13:00N 59°54' W 039°36'0 0.0 070 / 4999.4 4.8 1.4 6.4
2018-Jun-14 12:00N 59°54' W 039°36'0 0.0 070 / 4999.1 4.4 1.5 6.4
2018-Jun-14 11:00N 59°54' W 039°36'0 0.0 140 / 6998.9 4.1 1.1 6.3
2018-Jun-14 10:00N 59°54' W 039°36'0 0.0 130 / 3998.8 4.2 0.7 6.3
2018-Jun-14 09:00N 59°54' W 039°36'3 1.5 220 / 6998.8 4.0 0.9 6.2
2018-Jun-14 07:00N 59°54' W 039°30'0 0.0 250 / 8998.6 3.5 1.6 6.3
2018-Jun-14 06:00N 59°54' W 039°30'0 0.0 270 / 4998.6 3.5 2.0 6.3
2018-Jun-14 05:00N 59°54' W 039°30'0 0.0 260 / 7998.9 4.2 2.0 6.3
2018-Jun-14 04:00N 59°54' W 039°30'0 0.0 250 / 11999.2 4.0 2.0 6.2
2018-Jun-14 03:00N 59°54' W 039°30'0 0.0 240 / 12999.6 4.0 2.0 6.3
2018-Jun-14 02:00N 59°54' W 039°30'0 0.0 240 / 101000.0 4.7 2.1 6.3
2018-Jun-14 01:00N 59°54' W 039°30'0 0.0 240 / 141000.1 4.7 2.6 6.3
2018-Jun-14 00:00N 59°54' W 039°30'0 0.0 270 / 131000.2 5.4 2.2 6.3
2018-Jun-13 23:00N 59°54' W 039°30'0 0.0 280 / 101000.2 5.4 3.2 6.3
2018-Jun-13 22:00N 59°54' W 039°30'1313.4 270 / 101000.1 5.5 3.3 6.5
2018-Jun-13 21:00N 59°42' W 039°18'3 3.0 280 / 101000.4 5.5 2.8 5.8
2018-Jun-13 20:00N 59°42' W 039°12'9 9.1 290 / 101000.4 5.5 1.6 6.0
2018-Jun-13 19:00N 59°42' W 038°54'0 0.0 300 / 111000.5 5.5 2.2 5.5
2018-Jun-13 18:00N 59°42' W 038°54'0 0.0 310 / 111000.8 5.5 2.8 5.8
2018-Jun-13 17:00N 59°42' W 038°54'6 6.1 310 / 101000.8 5.3 3.7 5.8
2018-Jun-13 16:00N 59°42' W 038°42'3 3.0 300 / 101001.1 5.2 3.8 5.8
2018-Jun-13 15:00N 59°42' W 038°36'0 0.0 300 / 121001.5 5.3 3.4 5.8
2018-Jun-13 14:00N 59°42' W 038°36'0 0.0 290 / 91002.0 5.4 3.2 5.8
2018-Jun-13 13:00N 59°42' W 038°36'0 0.0 300 / 51002.2 5.3 3.4 5.8
2018-Jun-13 12:00N 59°42' W 038°36'0 0.0 310 / 51002.4 5.0 3.6 5.7
2018-Jun-13 11:00N 59°42' W 038°36'3 3.0 320 / 71002.6 5.0 3.8 5.6
2018-Jun-13 10:00N 59°42' W 038°30'0 0.0 350 / 61002.9 5.0 4.0 5.7
2018-Jun-13 09:00N 59°42' W 038°30'6 6.0 260 / 71002.9 5.1 4.1 5.6
2018-Jun-13 08:00N 59°36' W 038°30'7 6.7 270 / 61003.2 5.2 4.1 5.6
2018-Jun-13 07:00N 59°42' W 038°36'0 0.0 250 / 51003.4 5.0 4.0 5.5
2018-Jun-13 06:00N 59°42' W 038°36'0 0.0 260 / 71004.0 4.9 3.9 5.5
2018-Jun-13 05:00N 59°42' W 038°36'0 0.0 250 / 71004.5 4.9 3.9 5.4
2018-Jun-13 04:00N 59°42' W 038°36'0 0.0 270 / 61005.0 5.0 4.1 5.4
2018-Jun-13 03:00N 59°42' W 038°36'3 3.0 270 / 61005.6 4.9 4.0 5.3
2018-Jun-13 02:00N 59°42' W 038°30'3 3.0 260 / 71006.5 4.9 4.0 5.5
2018-Jun-13 01:00N 59°42' W 038°36'0 0.0 240 / 81007.3 4.8 3.8 5.5
2018-Jun-13 00:00N 59°42' W 038°36'9 8.5 260 / 81007.4 5.0 4.0 5.6
2018-Jun-12 23:00N 59°48' W 038°48'9 9.1 280 / 31007.4 5.4 4.2 5.5
2018-Jun-12 22:00N 59°48' W 039°06'3 3.0 010 / 21007.7 5.7 4.2 6.1
2018-Jun-12 21:00N 59°48' W 039°12'0 0.0 300 / 51007.9 5.5 4.3 6.2
2018-Jun-12 20:00N 59°48' W 039°12'0 0.0 290 / 51008.2 5.1 3.9 6.2
2018-Jun-12 19:00N 59°48' W 039°12'0 0.0 250 / 71008.4 4.9 3.7 6.2
2018-Jun-12 18:00N 59°48' W 039°12'7 6.7 250 / 101009.1 4.9 3.7 6.2
2018-Jun-12 17:00N 59°42' W 039°18'0 0.0 270 / 81009.3 4.9 3.0 6.3
2018-Jun-12 16:00N 59°42' W 039°18'7 6.7 250 / 71010.0 5.6 3.5 6.3
2018-Jun-12 15:00N 59°48' W 039°24'9 8.5 260 / 71009.8 5.1 3.3 6.1
2018-Jun-12 14:00N 59°54' W 039°36'0 0.0 240 / 91009.9 4.7 3.6 6.2
2018-Jun-12 13:00N 59°54' W 039°36'6 6.0 240 / 91010.3 4.7 3.5 6.1
2018-Jun-12 12:00N 60°00' W 039°36'6 6.0 220 / 81010.3 4.8 3.5 6.1
2018-Jun-12 11:00N 60°00' W 039°24'0 0.0 230 / 91010.0 5.0 3.8 6.2
2018-Jun-12 10:00N 60°00' W 039°24'0 0.0 230 / 101009.8 4.8 3.8 6.2
2018-Jun-12 09:00N 60°00' W 039°24'0 0.0 220 / 91009.7 4.9 3.9 6.1
2018-Jun-12 08:00N 60°00' W 039°24'0 0.0 250 / 41009.9 5.1 4.1 6.1
2018-Jun-12 07:00N 60°00' W 039°24'0 0.0 250 / 41009.6 5.1 4.1 6.1
2018-Jun-12 06:00N 60°00' W 039°24'0 0.0 280 / 31009.5 5.2 3.9 6.1
2018-Jun-12 05:00N 60°00' W 039°24'0 0.0 250 / 21009.3 5.1 3.9 6.1
2018-Jun-12 04:00N 60°00' W 039°24'1212.0 200 / 31009.3 4.9 3.8 6.1
2018-Jun-12 03:00N 59°48' W 039°24'6 6.0 140 / 31009.6 5.2 3.9 6.0
2018-Jun-12 02:00N 59°42' W 039°24'0 0.0 130 / 61009.3 5.1 4.0 5.9
2018-Jun-12 01:00N 59°42' W 039°24'3 3.0 140 / 41009.3 4.9 3.9 5.8
2018-Jun-12 00:00N 59°42' W 039°18'0 0.0 140 / 31009.2 4.9 4.0 5.8
2018-Jun-11 23:00N 59°42' W 039°18'3 3.0 160 / 51008.7 5.0 4.1 5.9
2018-Jun-11 22:00N 59°42' W 039°24'0 0.0 140 / 71008.4 5.3 4.4 5.9
2018-Jun-11 21:00N 59°42' W 039°24'0 0.0 070 / 161008.1 5.4 4.5 5.9
2018-Jun-11 20:00N 59°42' W 039°24'0 0.0 060 / 191007.7 5.4 4.5 6.0
2018-Jun-11 19:00N 59°42' W 039°24'3 3.0 070 / 241007.6 5.4 4.4 6.0
2018-Jun-11 18:00N 59°42' W 039°18'3 3.0 060 / 221007.6 5.3 4.3 6.0
2018-Jun-11 17:00N 59°42' W 039°24'0 0.0 060 / 241007.6 5.3 4.3 6.0
2018-Jun-11 16:00N 59°42' W 039°24'3 3.0 060 / 231007.8 5.3 4.2 6.0
2018-Jun-11 15:00N 59°42' W 039°18'0 0.0 060 / 241008.0 5.1 4.0 6.0
2018-Jun-11 14:00N 59°42' W 039°18'0 0.0 060 / 231008.6 5.2 3.8 6.0
2018-Jun-11 13:00N 59°42' W 039°18'3 3.0 070 / 231009.1 5.0 3.8 6.0
2018-Jun-11 12:00N 59°42' W 039°24'0 0.0 070 / 171009.3 4.8 3.6 6.0
2018-Jun-11 11:00N 59°42' W 039°24'0 0.0 080 / 171009.8 4.6 3.4 6.0
2018-Jun-11 10:00N 59°42' W 039°24'0 0.0 080 / 171010.0 4.6 3.4 6.1
2018-Jun-11 09:00N 59°42' W 039°24'0 0.0 090 / 181010.3 4.6 3.2 6.1
2018-Jun-11 08:00N 59°42' W 039°24'3 3.0 090 / 161010.6 4.4 2.9 6.1
2018-Jun-11 07:00N 59°42' W 039°18'0 0.0 090 / 161010.7 4.4 2.9 6.1
2018-Jun-11 06:00N 59°42' W 039°18'0 0.0 090 / 121011.1 4.6 2.5 6.1
2018-Jun-11 05:00N 59°42' W 039°18'0 0.0 110 / 111011.6 4.8 2.6 6.1
2018-Jun-11 04:00N 59°42' W 039°18'0 0.0 110 / 121012.3 5.1 2.1 6.2
2018-Jun-11 03:00N 59°42' W 039°18'0 0.0 090 / 91013.2 5.2 2.4 6.2
2018-Jun-11 02:00N 59°42' W 039°18'0 0.0 080 / 81013.5 5.1 2.2 6.3
2018-Jun-11 01:00N 59°42' W 039°18'0 0.0 060 / 71014.2 5.2 2.1 6.3
2018-Jun-11 00:00N 59°42' W 039°18'0 0.0 050 / 71014.7 5.2 1.9 6.2
2018-Jun-10 23:00N 59°42' W 039°18'0 0.0 060 / 41015.1 5.3 2.0 6.3
2018-Jun-10 22:00N 59°42' W 039°18'0 0.0 070 / 21015.3 5.4 2.1 6.3
2018-Jun-10 21:00N 59°42' W 039°18'3 3.0 1015.4 5.6 1.8 6.3
2018-Jun-10 20:00N 59°42' W 039°24'1110.9 010 / 71015.3 5.6 2.9 6.3
2018-Jun-10 19:00N 59°48' W 039°42'6 6.0 340 / 51015.4 5.5 2.5 5.5
2018-Jun-10 18:00N 59°48' W 039°54'3 3.0 340 / 41015.7 5.4 2.8 5.8
2018-Jun-10 17:00N 59°48' W 039°48'3 3.0 260 / 51015.8 5.5 2.7 5.3
2018-Jun-10 16:00N 59°48' W 039°54'0 0.0 260 / 41016.0 5.7 2.5 5.3
2018-Jun-10 15:00N 59°48' W 039°54'3 3.0 250 / 41016.2 5.5 2.4 5.3
2018-Jun-10 14:00N 59°48' W 039°48'0 0.0 240 / 31016.3 5.4 2.3 5.1
2018-Jun-10 13:00N 59°48' W 039°48'6 6.0 280 / 41016.0 5.5 2.3 5.2
2018-Jun-10 12:00N 59°42' W 039°48'0 0.0 310 / 41015.6 5.3 1.8 4.9
2018-Jun-10 11:00N 59°42' W 039°48'0 0.0 350 / 51015.5 5.2 2.0 4.9
2018-Jun-10 10:00N 59°42' W 039°48'0 0.0 300 / 61015.1 4.8 2.9 4.8
2018-Jun-10 09:00N 59°42' W 039°48'0 0.0 260 / 81015.0 4.6 2.8 4.8
2018-Jun-10 08:00N 59°42' W 039°48'6 6.0 240 / 81014.7 4.3 2.5 4.8
2018-Jun-10 07:00N 59°48' W 039°48'0 0.0 260 / 41014.2 4.7 2.6 4.8
2018-Jun-10 06:00N 59°48' W 039°48'0 0.0 280 / 31013.8 4.3 2.6 4.8
2018-Jun-10 05:00N 59°48' W 039°48'0 0.0 270 / 31013.3 3.7 2.1 4.8
2018-Jun-10 04:00N 59°48' W 039°48'0 0.0 220 / 71013.0 3.4 1.8 4.9
2018-Jun-10 03:00N 59°48' W 039°48'0 0.0 220 / 91013.3 3.5 1.9 4.9
2018-Jun-10 02:00N 59°48' W 039°48'7 6.7 290 / 81012.9 3.5 1.8 4.9
2018-Jun-10 01:00N 59°54' W 039°42'7 6.7 280 / 91012.7 3.8 2.1 5.9
2018-Jun-10 00:00N 60°00' W 039°36'3 3.0 270 / 111012.0 4.1 2.4 5.8
2018-Jun-09 23:00N 60°00' W 039°30'8 8.5 260 / 151011.5 3.8 1.8 5.9
2018-Jun-09 22:00N 59°54' W 039°18'0 0.0 270 / 161010.8 3.7 1.8 5.9
2018-Jun-09 21:00N 59°54' W 039°18'0 0.0 280 / 211010.3 3.9 1.7 6.1
2018-Jun-09 20:00N 59°54' W 039°18'0 0.0 260 / 251009.9 3.9 2.0 6.0
2018-Jun-09 19:00N 59°54' W 039°18'3 3.0 280 / 181009.7 4.0 2.0 6.0
2018-Jun-09 18:00N 59°54' W 039°24'7 6.7 260 / 181008.9 3.9 2.0 5.9
2018-Jun-09 17:00N 60°00' W 039°30'6 6.0 270 / 231008.2 3.8 2.1 5.9
2018-Jun-09 16:00N 59°54' W 039°30'6 6.0 270 / 231007.5 3.7 1.9 6.0
2018-Jun-09 15:00N 60°00' W 039°30'0 0.0 270 / 231006.8 3.9 2.2 6.0
2018-Jun-09 14:00N 60°00' W 039°30'0 0.0 280 / 181006.2 4.2 2.6 5.9
2018-Jun-09 13:00N 60°00' W 039°30'0 0.0 290 / 161005.8 4.2 2.9 5.9
2018-Jun-09 12:00N 60°00' W 039°30'7 6.7 280 / 151005.0 4.3 3.0 6.1
2018-Jun-09 11:00N 59°54' W 039°24'0 0.0 270 / 141004.8 4.5 3.1 6.0
2018-Jun-09 10:00N 59°54' W 039°24'0 0.0 260 / 131004.4 4.4 3.3 5.9
2018-Jun-09 09:00N 59°54' W 039°24'0 0.0 280 / 131004.2 4.5 3.3 6.0
2018-Jun-09 08:00N 59°54' W 039°24'7 6.7 300 / 171003.7 4.5 3.3 5.9
2018-Jun-09 07:00N 60°00' W 039°30'0 0.0 290 / 171003.1 4.8 3.8 5.9
2018-Jun-09 06:00N 60°00' W 039°30'0 0.0 300 / 181002.7 5.4 4.5 5.9
2018-Jun-09 05:00N 60°00' W 039°30'0 0.0 310 / 151002.4 5.5 4.6 5.9
2018-Jun-09 04:00N 60°00' W 039°30'0 0.0 320 / 171002.2 5.5 4.6 5.9
2018-Jun-09 03:00N 60°00' W 039°30'0 0.0 330 / 151002.0 5.6 4.7 5.9
2018-Jun-09 02:00N 60°00' W 039°30'   330 / 131002.2 5.6 4.7 5.9

Dump ship's entire track history